createdAt,value
2015-08-28T00:00:07.995Z,74414
2015-08-28T00:00:20.402Z,74415
2015-08-28T00:00:32.813Z,74415
2015-08-28T00:00:45.203Z,74412
2015-08-28T00:00:57.594Z,74414
2015-08-28T00:01:09.969Z,74414
2015-08-28T00:01:22.328Z,74413
2015-08-28T00:01:33.988Z,74409
2015-08-28T00:01:46.363Z,74417
2015-08-28T00:01:58.738Z,74415
2015-08-28T00:02:11.097Z,74415
2015-08-28T00:02:23.472Z,74415
2015-08-28T00:02:35.852Z,74415
2015-08-28T00:02:48.227Z,74414
2015-08-28T00:03:00.602Z,74414
2015-08-28T00:03:12.977Z,74412
2015-08-28T00:03:25.196Z,74413
2015-08-28T00:03:37.589Z,74419
2015-08-28T00:03:49.964Z,74410
2015-08-28T00:04:02.339Z,74410
2015-08-28T00:04:14.746Z,74417
2015-08-28T00:04:27.136Z,74420
2015-08-28T00:04:39.529Z,74420
2015-08-28T00:04:51.920Z,74417
2015-08-28T00:05:04.295Z,74418
2015-08-28T00:05:16.670Z,74418
2015-08-28T00:05:29.029Z,74412
2015-08-28T00:05:41.423Z,74417
2015-08-28T00:05:53.782Z,74409
2015-08-28T00:06:06.173Z,74416
2015-08-28T00:06:18.532Z,74411
2015-08-28T00:06:30.925Z,74415
2015-08-28T00:06:43.300Z,74412
2015-08-28T00:06:55.675Z,74412
2015-08-28T00:07:08.050Z,74411
2015-08-28T00:07:20.409Z,74413
2015-08-28T00:07:32.788Z,74416
2015-08-28T00:07:45.163Z,74411
2015-08-28T00:07:57.554Z,74410
2015-08-28T00:08:09.944Z,74417
2015-08-28T00:08:22.350Z,74414
2015-08-28T00:08:34.743Z,74418
2015-08-28T00:08:47.134Z,74415
2015-08-28T00:08:59.524Z,74417
2015-08-28T00:09:11.899Z,74411
2015-08-28T00:09:24.274Z,74411
2015-08-28T00:09:36.635Z,74416
2015-08-28T00:09:49.010Z,74415
2015-08-28T00:10:01.385Z,74414
2015-08-28T00:10:13.744Z,74417
2015-08-28T00:10:26.119Z,74413
2015-08-28T00:10:38.497Z,74418
2015-08-28T00:10:50.856Z,74419
2015-08-28T00:11:03.247Z,74416
2015-08-28T00:11:15.606Z,74415
2015-08-28T00:11:27.981Z,74419
2015-08-28T00:11:40.343Z,74422
2015-08-28T00:11:52.749Z,74416
2015-08-28T00:12:05.140Z,74420
2015-08-28T00:12:17.530Z,74416
2015-08-28T00:12:29.921Z,74426
2015-08-28T00:12:42.328Z,74416
2015-08-28T00:12:54.719Z,74421
2015-08-28T00:13:07.141Z,74416
2015-08-28T00:13:19.531Z,74418
2015-08-28T00:13:31.891Z,74416
2015-08-28T00:13:44.269Z,74419
2015-08-28T00:13:56.644Z,74412
2015-08-28T00:14:09.003Z,74422
2015-08-28T00:14:21.378Z,74414
2015-08-28T00:14:33.597Z,74418
2015-08-28T00:14:45.988Z,74409
2015-08-28T00:14:58.348Z,74413
2015-08-28T00:15:10.723Z,74411
2015-08-28T00:15:23.098Z,74410
2015-08-28T00:15:35.459Z,74409
2015-08-28T00:15:47.834Z,74411
2015-08-28T00:16:00.209Z,74403
2015-08-28T00:16:12.600Z,74406
2015-08-28T00:16:24.975Z,74415
2015-08-28T00:16:37.367Z,74413
2015-08-28T00:16:49.758Z,74417
2015-08-28T00:17:02.149Z,74413
2015-08-28T00:17:14.539Z,74416
2015-08-28T00:17:26.961Z,74412
2015-08-28T00:17:39.338Z,74410
2015-08-28T00:17:51.698Z,74413
2015-08-28T00:18:04.073Z,74415
2015-08-28T00:18:16.448Z,74415
2015-08-28T00:18:28.823Z,74414
2015-08-28T00:18:41.200Z,74415
2015-08-28T00:18:53.559Z,74410
2015-08-28T00:19:05.934Z,74410
2015-08-28T00:19:18.293Z,74406
2015-08-28T00:19:30.653Z,74409
2015-08-28T00:19:43.014Z,74410
2015-08-28T00:19:55.389Z,74418
2015-08-28T00:20:07.780Z,74412
2015-08-28T00:20:20.170Z,74410
2015-08-28T00:20:32.577Z,74411
2015-08-28T00:20:45.000Z,74407
2015-08-28T00:20:57.391Z,74413
2015-08-28T00:21:09.782Z,74415
2015-08-28T00:21:22.141Z,74413
2015-08-28T00:21:34.516Z,74412
2015-08-28T00:21:46.893Z,74416
2015-08-28T00:21:59.268Z,74419
2015-08-28T00:22:11.627Z,74416
2015-08-28T00:22:24.002Z,74416
2015-08-28T00:22:36.377Z,74418
2015-08-28T00:22:48.754Z,74408
2015-08-28T00:23:01.129Z,74419
2015-08-28T00:23:13.504Z,74412
2015-08-28T00:23:25.879Z,74420
2015-08-28T00:23:38.239Z,74420
2015-08-28T00:23:50.631Z,74416
2015-08-28T00:24:03.006Z,74417
2015-08-28T00:24:15.381Z,74413
2015-08-28T00:24:27.788Z,74414
2015-08-28T00:24:40.196Z,74403
2015-08-28T00:24:52.602Z,74410
2015-08-28T00:25:05.008Z,74399
2015-08-28T00:25:17.399Z,74412
2015-08-28T00:25:29.790Z,74415
2015-08-28T00:25:42.151Z,74416
2015-08-28T00:25:54.526Z,74417
2015-08-28T00:26:06.885Z,74422
2015-08-28T00:26:19.260Z,74415
2015-08-28T00:26:31.620Z,74417
2015-08-28T00:26:44.012Z,74415
2015-08-28T00:26:56.372Z,74414
2015-08-28T00:27:08.747Z,74423
2015-08-28T00:27:21.137Z,74417
2015-08-28T00:27:33.497Z,74425
2015-08-28T00:27:45.873Z,74417
2015-08-28T00:27:58.248Z,74423
2015-08-28T00:28:10.638Z,74413
2015-08-28T00:28:23.013Z,74416
2015-08-28T00:28:34.701Z,74412
2015-08-28T00:28:47.110Z,74423
2015-08-28T00:28:59.501Z,74422
2015-08-28T00:29:11.907Z,74424
2015-08-28T00:29:24.313Z,74425
2015-08-28T00:29:36.720Z,74419
2015-08-28T00:29:49.080Z,74419
2015-08-28T00:30:01.471Z,74422
2015-08-28T00:30:13.846Z,74419
2015-08-28T00:30:26.205Z,74416
2015-08-28T00:30:38.580Z,74421
2015-08-28T00:30:50.957Z,74423
2015-08-28T00:31:03.332Z,74419
2015-08-28T00:31:15.707Z,74422
2015-08-28T00:31:28.066Z,74420
2015-08-28T00:31:40.457Z,74424
2015-08-28T00:31:52.834Z,74429
2015-08-28T00:32:05.193Z,74424
2015-08-28T00:32:17.584Z,74427
2015-08-28T00:32:29.975Z,74422
2015-08-28T00:32:42.365Z,74424
2015-08-28T00:32:54.758Z,74422
2015-08-28T00:33:07.148Z,74419
2015-08-28T00:33:19.555Z,74420
2015-08-28T00:33:31.961Z,74436
2015-08-28T00:33:44.354Z,74424
2015-08-28T00:33:56.729Z,74428
2015-08-28T00:34:09.104Z,74414
2015-08-28T00:34:21.479Z,74412
2015-08-28T00:34:33.854Z,74408
2015-08-28T00:34:46.231Z,74407
2015-08-28T00:34:58.590Z,74413
2015-08-28T00:35:10.965Z,74415
2015-08-28T00:35:23.324Z,74424
2015-08-28T00:35:35.699Z,74426
2015-08-28T00:35:48.076Z,74420
2015-08-28T00:36:00.436Z,74418
2015-08-28T00:36:12.826Z,74417
2015-08-28T00:36:25.186Z,74414
2015-08-28T00:36:37.561Z,74420
2015-08-28T00:36:49.219Z,74414
2015-08-28T00:37:01.610Z,74424
2015-08-28T00:37:14.016Z,74417
2015-08-28T00:37:26.391Z,74424
2015-08-28T00:37:38.797Z,74418
2015-08-28T00:37:51.205Z,74420
2015-08-28T00:38:03.612Z,74421
2015-08-28T00:38:16.018Z,74418
2015-08-28T00:38:28.377Z,74421
2015-08-28T00:38:40.752Z,74426
2015-08-28T00:38:52.410Z,74426
2015-08-28T00:39:04.785Z,74417
2015-08-28T00:39:17.160Z,74423
2015-08-28T00:39:29.520Z,74424
2015-08-28T00:39:41.895Z,74417
2015-08-28T00:39:54.271Z,74421
2015-08-28T00:40:06.646Z,74417
2015-08-28T00:40:19.021Z,74426
2015-08-28T00:40:31.380Z,74422
2015-08-28T00:40:43.755Z,74422
2015-08-28T00:40:56.148Z,74427
2015-08-28T00:41:08.523Z,74429
2015-08-28T00:41:20.913Z,74422
2015-08-28T00:41:33.320Z,74417
2015-08-28T00:41:45.710Z,74426
2015-08-28T00:41:58.104Z,74424
2015-08-28T00:42:10.495Z,74424
2015-08-28T00:42:22.182Z,74420
2015-08-28T00:42:34.557Z,74416
2015-08-28T00:42:46.916Z,74423
2015-08-28T00:42:59.292Z,74423
2015-08-28T00:43:10.964Z,74418
2015-08-28T00:43:23.339Z,74416
2015-08-28T00:43:35.714Z,74424
2015-08-28T00:43:48.091Z,74426
2015-08-28T00:44:00.451Z,74428
2015-08-28T00:44:12.826Z,74427
2015-08-28T00:44:25.216Z,74422
2015-08-28T00:44:37.607Z,74417
2015-08-28T00:44:49.968Z,74426
2015-08-28T00:45:02.343Z,74426
2015-08-28T00:45:14.718Z,74423
2015-08-28T00:45:27.109Z,74424
2015-08-28T00:45:39.500Z,74423
2015-08-28T00:45:51.908Z,74428
2015-08-28T00:46:04.298Z,74423
2015-08-28T00:46:16.705Z,74428
2015-08-28T00:46:29.111Z,74429
2015-08-28T00:46:41.502Z,74425
2015-08-28T00:46:53.880Z,74428
2015-08-28T00:47:06.239Z,74419
2015-08-28T00:47:18.630Z,74432
2015-08-28T00:47:30.989Z,74426
2015-08-28T00:47:43.364Z,74426
2015-08-28T00:47:55.740Z,74430
2015-08-28T00:48:08.115Z,74426
2015-08-28T00:48:20.474Z,74418
2015-08-28T00:48:32.849Z,74427
2015-08-28T00:48:45.224Z,74425
2015-08-28T00:48:57.601Z,74432
2015-08-28T00:49:09.961Z,74429
2015-08-28T00:49:22.336Z,74423
2015-08-28T00:49:34.711Z,74427
2015-08-28T00:49:47.086Z,74434
2015-08-28T00:49:59.494Z,74425
2015-08-28T00:50:11.900Z,74423
2015-08-28T00:50:24.291Z,74428
2015-08-28T00:50:36.713Z,74432
2015-08-28T00:50:49.119Z,74426
2015-08-28T00:51:01.480Z,74431
2015-08-28T00:51:13.855Z,74428
2015-08-28T00:51:26.215Z,74430
2015-08-28T00:51:38.590Z,74432
2015-08-28T00:51:50.965Z,74427
2015-08-28T00:52:03.326Z,74427
2015-08-28T00:52:15.701Z,74434
2015-08-28T00:52:28.076Z,74430
2015-08-28T00:52:40.451Z,74431
2015-08-28T00:52:52.125Z,74429
2015-08-28T00:53:04.500Z,74428
2015-08-28T00:53:16.906Z,74430
2015-08-28T00:53:29.281Z,74431
2015-08-28T00:53:41.656Z,74431
2015-08-28T00:53:54.032Z,74437
2015-08-28T00:54:06.454Z,74435
2015-08-28T00:54:18.845Z,74433
2015-08-28T00:54:31.235Z,74436
2015-08-28T00:54:43.626Z,74433
2015-08-28T00:54:56.051Z,74429
2015-08-28T00:55:08.441Z,74436
2015-08-28T00:55:20.816Z,74432
2015-08-28T00:55:33.176Z,74429
2015-08-28T00:55:45.551Z,74430
2015-08-28T00:55:57.912Z,74428
2015-08-28T00:56:10.287Z,74434
2015-08-28T00:56:22.662Z,74431
2015-08-28T00:56:35.037Z,74436
2015-08-28T00:56:47.412Z,74432
2015-08-28T00:56:59.774Z,74430
2015-08-28T00:57:12.133Z,74431
2015-08-28T00:57:24.508Z,74431
2015-08-28T00:57:36.867Z,74427
2015-08-28T00:57:49.242Z,74437
2015-08-28T00:58:01.618Z,74440
2015-08-28T00:58:13.993Z,74434
2015-08-28T00:58:26.384Z,74431
2015-08-28T00:58:38.806Z,74427
2015-08-28T00:58:51.196Z,74428
2015-08-28T00:59:03.589Z,74421
2015-08-28T00:59:15.964Z,74424
2015-08-28T00:59:28.339Z,74420
2015-08-28T00:59:40.714Z,74423
2015-08-28T00:59:53.073Z,74422
2015-08-28T01:00:05.467Z,74422
2015-08-28T01:00:17.826Z,74426
2015-08-28T01:00:30.201Z,74423
2015-08-28T01:00:42.576Z,74427
2015-08-28T01:00:54.952Z,74428
2015-08-28T01:01:07.312Z,74432
2015-08-28T01:01:19.687Z,74424
2015-08-28T01:01:32.062Z,74422
2015-08-28T01:01:44.437Z,74418
2015-08-28T01:01:56.829Z,74429
2015-08-28T01:02:09.220Z,74418
2015-08-28T01:02:21.611Z,74420
2015-08-28T01:02:34.017Z,74418
2015-08-28T01:02:46.408Z,74427
2015-08-28T01:02:58.831Z,74427
2015-08-28T01:03:11.222Z,74429
2015-08-28T01:03:23.581Z,74423
2015-08-28T01:03:35.956Z,74430
2015-08-28T01:03:48.331Z,74422
2015-08-28T01:04:00.708Z,74431
2015-08-28T01:04:13.083Z,74431
2015-08-28T01:04:25.458Z,74435
2015-08-28T01:04:37.115Z,74424
2015-08-28T01:04:49.474Z,74431
2015-08-28T01:05:01.867Z,74426
2015-08-28T01:05:14.242Z,74423
2015-08-28T01:05:26.601Z,74435
2015-08-28T01:05:38.976Z,74430
2015-08-28T01:05:51.351Z,74432
2015-08-28T01:06:03.728Z,74435
2015-08-28T01:06:16.119Z,74429
2015-08-28T01:06:28.525Z,74430
2015-08-28T01:06:40.931Z,74429
2015-08-28T01:06:53.322Z,74424
2015-08-28T01:07:05.699Z,74433
2015-08-28T01:07:17.402Z,74426
2015-08-28T01:07:29.777Z,74439
2015-08-28T01:07:42.152Z,74438
2015-08-28T01:07:54.527Z,74438
2015-08-28T01:08:06.904Z,74433
2015-08-28T01:08:19.279Z,74429
2015-08-28T01:08:31.654Z,74433
2015-08-28T01:08:44.013Z,74428
2015-08-28T01:08:56.388Z,74431
2015-08-28T01:09:08.750Z,74428
2015-08-28T01:09:21.125Z,74421
2015-08-28T01:09:33.500Z,74425
2015-08-28T01:09:45.859Z,74417
2015-08-28T01:09:57.515Z,74421
2015-08-28T01:10:09.891Z,74424
2015-08-28T01:10:22.282Z,74424
2015-08-28T01:10:34.688Z,74432
2015-08-28T01:10:47.094Z,74423
2015-08-28T01:10:59.488Z,74429
2015-08-28T01:11:11.894Z,74422
2015-08-28T01:11:24.316Z,74432
2015-08-28T01:11:36.691Z,74423
2015-08-28T01:11:49.066Z,74431
2015-08-28T01:12:01.442Z,74427
2015-08-28T01:12:13.802Z,74430
2015-08-28T01:12:26.177Z,74421
2015-08-28T01:12:38.552Z,74428
2015-08-28T01:12:50.911Z,74425
2015-08-28T01:13:03.288Z,74424
2015-08-28T01:13:15.663Z,74427
2015-08-28T01:13:28.038Z,74429
2015-08-28T01:13:40.413Z,74426
2015-08-28T01:13:52.788Z,74430
2015-08-28T01:14:05.010Z,74434
2015-08-28T01:14:17.385Z,74428
2015-08-28T01:14:29.760Z,74429
2015-08-28T01:14:42.150Z,74428
2015-08-28T01:14:54.557Z,74428
2015-08-28T01:15:06.948Z,74427
2015-08-28T01:15:19.339Z,74428
2015-08-28T01:15:31.745Z,74430
2015-08-28T01:15:44.120Z,74430
2015-08-28T01:15:56.495Z,74434
2015-08-28T01:16:08.856Z,74429
2015-08-28T01:16:21.231Z,74436
2015-08-28T01:16:33.606Z,74426
2015-08-28T01:16:45.966Z,74429
2015-08-28T01:16:58.341Z,74432
2015-08-28T01:17:10.703Z,74428
2015-08-28T01:17:23.078Z,74428
2015-08-28T01:17:35.453Z,74426
2015-08-28T01:17:47.813Z,74429
2015-08-28T01:18:00.172Z,74427
2015-08-28T01:18:12.548Z,74428
2015-08-28T01:18:24.939Z,74435
2015-08-28T01:18:37.345Z,74430
2015-08-28T01:18:49.720Z,74427
2015-08-28T01:19:02.112Z,74428
2015-08-28T01:19:14.519Z,74432
2015-08-28T01:19:26.925Z,74432
2015-08-28T01:19:39.331Z,74433
2015-08-28T01:19:51.722Z,74431
2015-08-28T01:20:04.099Z,74427
2015-08-28T01:20:16.474Z,74425
2015-08-28T01:20:28.833Z,74425
2015-08-28T01:20:41.193Z,74417
2015-08-28T01:20:52.849Z,74428
2015-08-28T01:21:05.241Z,74432
2015-08-28T01:21:17.616Z,74428
2015-08-28T01:21:29.976Z,74429
2015-08-28T01:21:42.351Z,74431
2015-08-28T01:21:54.741Z,74429
2015-08-28T01:22:07.117Z,74429
2015-08-28T01:22:19.492Z,74426
2015-08-28T01:22:31.899Z,74426
2015-08-28T01:22:44.305Z,74424
2015-08-28T01:22:55.274Z,74428
2015-08-28T01:23:07.667Z,74429
2015-08-28T01:23:20.089Z,74426
2015-08-28T01:23:32.464Z,74425
2015-08-28T01:23:44.839Z,74427
2015-08-28T01:23:57.214Z,74424
2015-08-28T01:24:09.607Z,74427
2015-08-28T01:24:21.982Z,74431
2015-08-28T01:24:34.341Z,74428
2015-08-28T01:24:46.716Z,74430
2015-08-28T01:24:59.107Z,74427
2015-08-28T01:25:11.484Z,74426
2015-08-28T01:25:23.859Z,74427
2015-08-28T01:25:36.234Z,74426
2015-08-28T01:25:48.609Z,74423
2015-08-28T01:26:00.984Z,74423
2015-08-28T01:26:12.658Z,74418
2015-08-28T01:26:25.033Z,74426
2015-08-28T01:26:37.423Z,74429
2015-08-28T01:26:49.814Z,74424
2015-08-28T01:27:02.205Z,74430
2015-08-28T01:27:14.612Z,74432
2015-08-28T01:27:27.018Z,74428
2015-08-28T01:27:39.393Z,74430
2015-08-28T01:27:51.784Z,74428
2015-08-28T01:28:04.159Z,74426
2015-08-28T01:28:16.537Z,74420
2015-08-28T01:28:28.912Z,74420
2015-08-28T01:28:41.271Z,74420
2015-08-28T01:28:53.646Z,74417
2015-08-28T01:29:06.053Z,74418
2015-08-28T01:29:18.428Z,74422
2015-08-28T01:29:30.788Z,74420
2015-08-28T01:29:43.163Z,74421
2015-08-28T01:29:55.538Z,74421
2015-08-28T01:30:07.915Z,74426
2015-08-28T01:30:20.290Z,74424
2015-08-28T01:30:32.680Z,74422
2015-08-28T01:30:45.071Z,74418
2015-08-28T01:30:57.462Z,74418
2015-08-28T01:31:09.870Z,74414
2015-08-28T01:31:22.260Z,74426
2015-08-28T01:31:34.651Z,74421
2015-08-28T01:31:47.042Z,74427
2015-08-28T01:31:59.401Z,74426
2015-08-28T01:32:11.778Z,74429
2015-08-28T01:32:24.153Z,74426
2015-08-28T01:32:36.544Z,74426
2015-08-28T01:32:48.903Z,74428
2015-08-28T01:33:01.278Z,74423
2015-08-28T01:33:13.640Z,74422
2015-08-28T01:33:26.015Z,74428
2015-08-28T01:33:38.390Z,74424
2015-08-28T01:33:50.750Z,74426
2015-08-28T01:34:03.125Z,74420
2015-08-28T01:34:15.501Z,74422
2015-08-28T01:34:27.876Z,74420
2015-08-28T01:34:40.251Z,74424
2015-08-28T01:34:52.641Z,74430
2015-08-28T01:35:05.048Z,74433
2015-08-28T01:35:17.440Z,74432
2015-08-28T01:35:29.831Z,74429
2015-08-28T01:35:42.222Z,74428
2015-08-28T01:35:54.612Z,74422
2015-08-28T01:36:07.018Z,74425
2015-08-28T01:36:19.380Z,74417
2015-08-28T01:36:31.755Z,74418
2015-08-28T01:36:44.130Z,74415
2015-08-28T01:36:56.505Z,74421
2015-08-28T01:37:08.882Z,74430
2015-08-28T01:37:21.257Z,74429
2015-08-28T01:37:33.632Z,74427
2015-08-28T01:37:46.007Z,74424
2015-08-28T01:37:58.382Z,74428
2015-08-28T01:38:10.742Z,74423
2015-08-28T01:38:23.117Z,74425
2015-08-28T01:38:35.492Z,74427
2015-08-28T01:38:47.867Z,74428
2015-08-28T01:39:00.242Z,74428
2015-08-28T01:39:12.636Z,74428
2015-08-28T01:39:24.886Z,74417
2015-08-28T01:39:37.261Z,74413
2015-08-28T01:39:49.651Z,74420
2015-08-28T01:40:02.026Z,74422
2015-08-28T01:40:14.419Z,74428
2015-08-28T01:40:26.794Z,74427
2015-08-28T01:40:39.153Z,74428
2015-08-28T01:40:51.528Z,74432
2015-08-28T01:41:03.903Z,74427
2015-08-28T01:41:16.279Z,74430
2015-08-28T01:41:28.654Z,74433
2015-08-28T01:41:41.029Z,74431
2015-08-28T01:41:53.404Z,74430
2015-08-28T01:42:05.779Z,74429
2015-08-28T01:42:18.156Z,74432
2015-08-28T01:42:30.516Z,74430
2015-08-28T01:42:42.891Z,74428
2015-08-28T01:42:55.266Z,74429
2015-08-28T01:43:07.656Z,74430
2015-08-28T01:43:20.049Z,74432
2015-08-28T01:43:32.440Z,74430
2015-08-28T01:43:44.846Z,74430
2015-08-28T01:43:57.252Z,74434
2015-08-28T01:44:09.643Z,74430
2015-08-28T01:44:22.051Z,74433
2015-08-28T01:44:34.426Z,74432
2015-08-28T01:44:46.801Z,74430
2015-08-28T01:44:59.160Z,74427
2015-08-28T01:45:11.397Z,74431
2015-08-28T01:45:23.772Z,74425
2015-08-28T01:45:36.147Z,74428
2015-08-28T01:45:48.522Z,74421
2015-08-28T01:46:00.881Z,74418
2015-08-28T01:46:13.258Z,74428
2015-08-28T01:46:25.633Z,74426
2015-08-28T01:46:38.008Z,74424
2015-08-28T01:46:50.383Z,74421
2015-08-28T01:47:02.758Z,74429
2015-08-28T01:47:15.135Z,74426
2015-08-28T01:47:27.510Z,74434
2015-08-28T01:47:39.916Z,74431
2015-08-28T01:47:52.323Z,74435
2015-08-28T01:48:04.713Z,74428
2015-08-28T01:48:17.122Z,74431
2015-08-28T01:48:29.543Z,74428
2015-08-28T01:48:41.918Z,74426
2015-08-28T01:48:54.293Z,74428
2015-08-28T01:49:06.653Z,74429
2015-08-28T01:49:19.030Z,74428
2015-08-28T01:49:31.389Z,74431
2015-08-28T01:49:43.764Z,74432
2015-08-28T01:49:56.124Z,74434
2015-08-28T01:50:08.514Z,74432
2015-08-28T01:50:20.891Z,74433
2015-08-28T01:50:33.254Z,74433
2015-08-28T01:50:45.629Z,74435
2015-08-28T01:50:58.004Z,74433
2015-08-28T01:51:10.364Z,74425
2015-08-28T01:51:22.741Z,74434
2015-08-28T01:51:35.116Z,74439
2015-08-28T01:51:47.491Z,74434
2015-08-28T01:51:59.881Z,74428
2015-08-28T01:52:12.288Z,74437
2015-08-28T01:52:24.696Z,74433
2015-08-28T01:52:37.087Z,74435
2015-08-28T01:52:49.477Z,74433
2015-08-28T01:53:01.852Z,74425
2015-08-28T01:53:14.212Z,74429
2015-08-28T01:53:26.589Z,74425
2015-08-28T01:53:38.964Z,74428
2015-08-28T01:53:51.323Z,74433
2015-08-28T01:54:03.698Z,74440
2015-08-28T01:54:16.073Z,74436
2015-08-28T01:54:28.434Z,74438
2015-08-28T01:54:40.809Z,74437
2015-08-28T01:54:53.184Z,74435
2015-08-28T01:55:05.544Z,74440
2015-08-28T01:55:17.921Z,74425
2015-08-28T01:55:30.296Z,74430
2015-08-28T01:55:42.671Z,74434
2015-08-28T01:55:55.046Z,74442
2015-08-28T01:56:07.436Z,74430
2015-08-28T01:56:19.844Z,74432
2015-08-28T01:56:32.234Z,74432
2015-08-28T01:56:44.640Z,74431
2015-08-28T01:56:56.344Z,74432
2015-08-28T01:57:08.750Z,74431
2015-08-28T01:57:21.143Z,74439
2015-08-28T01:57:33.518Z,74435
2015-08-28T01:57:45.878Z,74437
2015-08-28T01:57:58.253Z,74433
2015-08-28T01:58:10.628Z,74436
2015-08-28T01:58:23.005Z,74429
2015-08-28T01:58:35.395Z,74439
2015-08-28T01:58:47.786Z,74433
2015-08-28T01:59:00.145Z,74432
2015-08-28T01:59:12.520Z,74436
2015-08-28T01:59:24.896Z,74436
2015-08-28T01:59:37.271Z,74432
2015-08-28T01:59:49.631Z,74435
2015-08-28T02:00:02.021Z,74438
2015-08-28T02:00:14.396Z,74436
2015-08-28T02:00:26.790Z,74442
2015-08-28T02:00:39.181Z,74437
2015-08-28T02:00:51.571Z,74446
2015-08-28T02:01:03.978Z,74435
2015-08-28T02:01:16.384Z,74435
2015-08-28T02:01:28.775Z,74432
2015-08-28T02:01:41.150Z,74436
2015-08-28T02:01:53.525Z,74435
2015-08-28T02:02:05.885Z,74435
2015-08-28T02:02:18.260Z,74437
2015-08-28T02:02:30.621Z,74441
2015-08-28T02:02:42.996Z,74436
2015-08-28T02:02:55.371Z,74445
2015-08-28T02:03:07.762Z,74442
2015-08-28T02:03:20.121Z,74436
2015-08-28T02:03:32.498Z,74436
2015-08-28T02:03:44.858Z,74435
2015-08-28T02:03:57.233Z,74440
2015-08-28T02:04:09.608Z,74447
2015-08-28T02:04:21.986Z,74444
2015-08-28T02:04:34.361Z,74437
2015-08-28T02:04:46.751Z,74438
2015-08-28T02:04:59.157Z,74427
2015-08-28T02:05:11.548Z,74429
2015-08-28T02:05:23.955Z,74447
2015-08-28T02:05:36.346Z,74431
2015-08-28T02:05:48.768Z,74442
2015-08-28T02:06:01.143Z,74437
2015-08-28T02:06:13.518Z,74435
2015-08-28T02:06:25.879Z,74440
2015-08-28T02:06:38.254Z,74439
2015-08-28T02:06:50.614Z,74443
2015-08-28T02:07:02.989Z,74431
2015-08-28T02:07:15.348Z,74435
2015-08-28T02:07:27.725Z,74436
2015-08-28T02:07:40.100Z,74435
2015-08-28T02:07:52.475Z,74434
2015-08-28T02:08:04.850Z,74441
2015-08-28T02:08:17.225Z,74432
2015-08-28T02:08:29.602Z,74440
2015-08-28T02:08:41.993Z,74436
2015-08-28T02:08:54.383Z,74438
2015-08-28T02:09:06.774Z,74441
2015-08-28T02:09:19.164Z,74441
2015-08-28T02:09:31.556Z,74441
2015-08-28T02:09:43.962Z,74441
2015-08-28T02:09:56.353Z,74437
2015-08-28T02:10:08.759Z,74425
2015-08-28T02:10:21.119Z,74433
2015-08-28T02:10:33.480Z,74438
2015-08-28T02:10:45.871Z,74433
2015-08-28T02:10:58.246Z,74443
2015-08-28T02:11:10.621Z,74432
2015-08-28T02:11:22.983Z,74436
2015-08-28T02:11:35.358Z,74431
2015-08-28T02:11:47.733Z,74438
2015-08-28T02:12:00.108Z,74435
2015-08-28T02:12:12.467Z,74433
2015-08-28T02:12:24.844Z,74437
2015-08-28T02:12:37.219Z,74431
2015-08-28T02:12:49.610Z,74431
2015-08-28T02:13:01.985Z,74436
2015-08-28T02:13:14.376Z,74433
2015-08-28T02:13:26.767Z,74431
2015-08-28T02:13:39.158Z,74429
2015-08-28T02:13:51.564Z,74431
2015-08-28T02:14:03.939Z,74431
2015-08-28T02:14:16.345Z,74434
2015-08-28T02:14:28.722Z,74433
2015-08-28T02:14:41.097Z,74432
2015-08-28T02:14:53.472Z,74437
2015-08-28T02:15:05.832Z,74436
2015-08-28T02:15:18.207Z,74433
2015-08-28T02:15:30.584Z,74435
2015-08-28T02:15:42.974Z,74431
2015-08-28T02:15:55.349Z,74437
2015-08-28T02:16:07.709Z,74432
2015-08-28T02:16:20.084Z,74434
2015-08-28T02:16:32.462Z,74434
2015-08-28T02:16:44.821Z,74434
2015-08-28T02:16:57.196Z,74435
2015-08-28T02:17:08.868Z,74433
2015-08-28T02:17:21.243Z,74430
2015-08-28T02:17:33.635Z,74436
2015-08-28T02:17:46.041Z,74436
2015-08-28T02:17:58.447Z,74434
2015-08-28T02:18:10.838Z,74427
2015-08-28T02:18:23.228Z,74432
2015-08-28T02:18:35.621Z,74434
2015-08-28T02:18:47.996Z,74433
2015-08-28T02:19:00.371Z,74433
2015-08-28T02:19:12.746Z,74431
2015-08-28T02:19:25.105Z,74435
2015-08-28T02:19:37.482Z,74432
2015-08-28T02:19:49.842Z,74430
2015-08-28T02:20:02.217Z,74433
2015-08-28T02:20:14.576Z,74429
2015-08-28T02:20:26.935Z,74440
2015-08-28T02:20:39.312Z,74432
2015-08-28T02:20:51.672Z,74440
2015-08-28T02:21:04.047Z,74438
2015-08-28T02:21:16.422Z,74441
2015-08-28T02:21:28.797Z,74441
2015-08-28T02:21:41.189Z,74437
2015-08-28T02:21:53.596Z,74437
2015-08-28T02:22:05.986Z,74447
2015-08-28T02:22:18.377Z,74448
2015-08-28T02:22:30.785Z,74443
2015-08-28T02:22:43.207Z,74441
2015-08-28T02:22:55.582Z,74441
2015-08-28T02:23:07.957Z,74438
2015-08-28T02:23:20.348Z,74433
2015-08-28T02:23:32.740Z,74435
2015-08-28T02:23:45.100Z,74442
2015-08-28T02:23:57.475Z,74451
2015-08-28T02:24:09.850Z,74438
2015-08-28T02:24:22.209Z,74449
2015-08-28T02:24:34.586Z,74443
2015-08-28T02:24:46.961Z,74437
2015-08-28T02:24:59.336Z,74435
2015-08-28T02:25:11.711Z,74440
2015-08-28T02:25:24.070Z,74439
2015-08-28T02:25:36.447Z,74441
2015-08-28T02:25:48.838Z,74437
2015-08-28T02:26:01.213Z,74442
2015-08-28T02:26:13.619Z,74444
2015-08-28T02:26:26.026Z,74440
2015-08-28T02:26:38.418Z,74441
2015-08-28T02:26:50.809Z,74445
2015-08-28T02:27:03.184Z,74450
2015-08-28T02:27:15.559Z,74448
2015-08-28T02:27:27.934Z,74448
2015-08-28T02:27:40.311Z,74451
2015-08-28T02:27:52.686Z,74455
2015-08-28T02:28:05.045Z,74450
2015-08-28T02:28:17.420Z,74450
2015-08-28T02:28:29.826Z,74450
2015-08-28T02:28:42.188Z,74444
2015-08-28T02:28:54.563Z,74450
2015-08-28T02:29:06.953Z,74441
2015-08-28T02:29:19.313Z,74440
2015-08-28T02:29:31.689Z,74441
2015-08-28T02:29:44.064Z,74441
2015-08-28T02:29:56.439Z,74440
2015-08-28T02:30:08.814Z,74442
2015-08-28T02:30:21.220Z,74435
2015-08-28T02:30:33.614Z,74437
2015-08-28T02:30:46.004Z,74432
2015-08-28T02:30:58.395Z,74434
2015-08-28T02:31:10.801Z,74429
2015-08-28T02:31:23.176Z,74428
2015-08-28T02:31:35.538Z,74426
2015-08-28T02:31:47.897Z,74436
2015-08-28T02:32:00.272Z,74425
2015-08-28T02:32:12.647Z,74430
2015-08-28T02:32:25.022Z,74432
2015-08-28T02:32:37.383Z,74432
2015-08-28T02:32:49.055Z,74439
2015-08-28T02:33:01.415Z,74431
2015-08-28T02:33:13.790Z,74438
2015-08-28T02:33:26.165Z,74430
2015-08-28T02:33:38.542Z,74439
2015-08-28T02:33:50.917Z,74433
2015-08-28T02:34:03.307Z,74442
2015-08-28T02:34:15.682Z,74439
2015-08-28T02:34:28.073Z,74440
2015-08-28T02:34:40.480Z,74444
2015-08-28T02:34:52.871Z,74442
2015-08-28T02:35:05.261Z,74445
2015-08-28T02:35:17.668Z,74449
2015-08-28T02:35:30.058Z,74450
2015-08-28T02:35:42.420Z,74451
2015-08-28T02:35:54.795Z,74447
2015-08-28T02:36:07.170Z,74445
2015-08-28T02:36:19.545Z,74441
2015-08-28T02:36:31.920Z,74439
2015-08-28T02:36:44.297Z,74441
2015-08-28T02:36:56.672Z,74433
2015-08-28T02:37:09.047Z,74440
2015-08-28T02:37:21.422Z,74435
2015-08-28T02:37:33.799Z,74448
2015-08-28T02:37:46.174Z,74450
2015-08-28T02:37:58.549Z,74448
2015-08-28T02:38:10.924Z,74449
2015-08-28T02:38:23.299Z,74442
2015-08-28T02:38:35.691Z,74442
2015-08-28T02:38:48.082Z,74436
2015-08-28T02:39:00.472Z,74429
2015-08-28T02:39:12.879Z,74440